sensor_id;sensor_type;location;lat;lon;timestamp;P1;durP1;ratioP1;P2;durP2;ratioP2
9056;SDS011;4563;54.756;9.400;2023-04-03T00:02:13;2.00;;;1.20;;
9056;SDS011;4563;54.756;9.400;2023-04-03T00:04:40;2.57;;;1.50;;
9056;SDS011;4563;54.756;9.400;2023-04-03T00:07:11;2.97;;;1.00;;
9056;SDS011;4563;54.756;9.400;2023-04-03T00:09:44;4.23;;;1.20;;
9056;SDS011;4563;54.756;9.400;2023-04-03T00:12:13;2.43;;;1.27;;
9056;SDS011;4563;54.756;9.400;2023-04-03T00:14:40;5.70;;;1.10;;
9056;SDS011;4563;54.756;9.400;2023-04-03T00:17:10;2.20;;;1.10;;
9056;SDS011;4563;54.756;9.400;2023-04-03T00:19:38;2.53;;;1.00;;
9056;SDS011;4563;54.756;9.400;2023-04-03T00:22:05;1.93;;;1.30;;
9056;SDS011;4563;54.756;9.400;2023-04-03T00:24:34;3.57;;;1.47;;
9056;SDS011;4563;54.756;9.400;2023-04-03T00:27:01;1.40;;;1.30;;
9056;SDS011;4563;54.756;9.400;2023-04-03T00:29:30;1.50;;;1.37;;
9056;SDS011;4563;54.756;9.400;2023-04-03T00:31:57;6.60;;;1.63;;
9056;SDS011;4563;54.756;9.400;2023-04-03T00:34:26;2.87;;;1.20;;
9056;SDS011;4563;54.756;9.400;2023-04-03T00:36:55;4.67;;;1.50;;
9056;SDS011;4563;54.756;9.400;2023-04-03T00:39:23;2.17;;;1.20;;
9056;SDS011;4563;54.756;9.400;2023-04-03T00:41:51;2.63;;;1.60;;
9056;SDS011;4563;54.756;9.400;2023-04-03T00:44:22;2.03;;;1.30;;
9056;SDS011;4563;54.756;9.400;2023-04-03T00:47:16;2.97;;;1.10;;
9056;SDS011;4563;54.756;9.400;2023-04-03T00:49:44;3.87;;;1.20;;
9056;SDS011;4563;54.756;9.400;2023-04-03T00:52:13;2.73;;;1.10;;
9056;SDS011;4563;54.756;9.400;2023-04-03T00:54:42;2.77;;;1.37;;
9056;SDS011;4563;54.756;9.400;2023-04-03T00:57:11;7.57;;;1.43;;
9056;SDS011;4563;54.756;9.400;2023-04-03T00:59:42;4.20;;;1.20;;
9056;SDS011;4563;54.756;9.400;2023-04-03T01:02:11;2.30;;;1.30;;
9056;SDS011;4563;54.756;9.400;2023-04-03T01:04:40;1.97;;;1.07;;
9056;SDS011;4563;54.756;9.400;2023-04-03T01:07:10;4.53;;;1.00;;
9056;SDS011;4563;54.756;9.400;2023-04-03T01:09:40;2.97;;;0.80;;
9056;SDS011;4563;54.756;9.400;2023-04-03T01:12:14;2.73;;;1.27;;
9056;SDS011;4563;54.756;9.400;2023-04-03T01:14:42;1.50;;;0.87;;
9056;SDS011;4563;54.756;9.400;2023-04-03T01:17:23;0.83;;;0.80;;
9056;SDS011;4563;54.756;9.400;2023-04-03T01:20:03;5.07;;;1.03;;
9056;SDS011;4563;54.756;9.400;2023-04-03T01:22:55;3.67;;;1.37;;
9056;SDS011;4563;54.756;9.400;2023-04-03T01:25:25;3.17;;;1.30;;
9056;SDS011;4563;54.756;9.400;2023-04-03T01:27:52;2.70;;;1.10;;
9056;SDS011;4563;54.756;9.400;2023-04-03T01:30:20;3.70;;;1.20;;
9056;SDS011;4563;54.756;9.400;2023-04-03T01:32:51;1.57;;;1.10;;
9056;SDS011;4563;54.756;9.400;2023-04-03T01:35:18;3.30;;;1.63;;
9056;SDS011;4563;54.756;9.400;2023-04-03T01:37:45;6.53;;;1.30;;
9056;SDS011;4563;54.756;9.400;2023-04-03T01:40:11;1.83;;;1.30;;
9056;SDS011;4563;54.756;9.400;2023-04-03T01:42:38;1.20;;;1.03;;
9056;SDS011;4563;54.756;9.400;2023-04-03T01:45:05;3.30;;;1.53;;
9056;SDS011;4563;54.756;9.400;2023-04-03T01:47:33;2.07;;;1.33;;
9056;SDS011;4563;54.756;9.400;2023-04-03T01:50:01;4.70;;;1.83;;
9056;SDS011;4563;54.756;9.400;2023-04-03T01:52:28;7.47;;;1.67;;
9056;SDS011;4563;54.756;9.400;2023-04-03T01:54:55;8.07;;;1.30;;
9056;SDS011;4563;54.756;9.400;2023-04-03T01:57:22;3.57;;;1.70;;
9056;SDS011;4563;54.756;9.400;2023-04-03T01:59:48;2.57;;;1.53;;
9056;SDS011;4563;54.756;9.400;2023-04-03T02:02:16;3.07;;;1.70;;
9056;SDS011;4563;54.756;9.400;2023-04-03T02:04:45;1.50;;;1.40;;
9056;SDS011;4563;54.756;9.400;2023-04-03T02:07:13;3.03;;;1.50;;
9056;SDS011;4563;54.756;9.400;2023-04-03T02:09:40;4.23;;;1.63;;
9056;SDS011;4563;54.756;9.400;2023-04-03T02:12:06;5.50;;;1.23;;
9056;SDS011;4563;54.756;9.400;2023-04-03T02:14:33;3.13;;;1.33;;
9056;SDS011;4563;54.756;9.400;2023-04-03T02:17:00;3.17;;;1.27;;
9056;SDS011;4563;54.756;9.400;2023-04-03T02:19:30;4.07;;;1.40;;
9056;SDS011;4563;54.756;9.400;2023-04-03T02:21:56;3.90;;;1.60;;
9056;SDS011;4563;54.756;9.400;2023-04-03T02:24:25;2.40;;;1.47;;
9056;SDS011;4563;54.756;9.400;2023-04-03T02:26:52;3.37;;;1.40;;
9056;SDS011;4563;54.756;9.400;2023-04-03T02:29:19;2.50;;;1.47;;
9056;SDS011;4563;54.756;9.400;2023-04-03T02:31:46;2.17;;;1.30;;
9056;SDS011;4563;54.756;9.400;2023-04-03T02:34:13;3.13;;;1.40;;
9056;SDS011;4563;54.756;9.400;2023-04-03T02:36:39;2.83;;;1.60;;
9056;SDS011;4563;54.756;9.400;2023-04-03T02:39:06;1.77;;;1.60;;
9056;SDS011;4563;54.756;9.400;2023-04-03T02:41:34;2.70;;;1.40;;
9056;SDS011;4563;54.756;9.400;2023-04-03T02:44:02;2.80;;;1.77;;
9056;SDS011;4563;54.756;9.400;2023-04-03T02:46:29;3.30;;;1.70;;
9056;SDS011;4563;54.756;9.400;2023-04-03T02:48:56;2.37;;;1.50;;
9056;SDS011;4563;54.756;9.400;2023-04-03T02:51:23;4.83;;;1.50;;
9056;SDS011;4563;54.756;9.400;2023-04-03T02:53:50;3.57;;;1.80;;
9056;SDS011;4563;54.756;9.400;2023-04-03T02:56:17;6.37;;;2.23;;
9056;SDS011;4563;54.756;9.400;2023-04-03T02:58:46;3.17;;;2.10;;
9056;SDS011;4563;54.756;9.400;2023-04-03T03:01:13;3.00;;;2.43;;
9056;SDS011;4563;54.756;9.400;2023-04-03T03:03:40;15.67;;;8.07;;
9056;SDS011;4563;54.756;9.400;2023-04-03T03:06:08;3.97;;;2.47;;
9056;SDS011;4563;54.756;9.400;2023-04-03T03:08:36;2.87;;;1.83;;
9056;SDS011;4563;54.756;9.400;2023-04-03T03:11:03;3.70;;;1.80;;
9056;SDS011;4563;54.756;9.400;2023-04-03T03:13:30;2.67;;;1.53;;
9056;SDS011;4563;54.756;9.400;2023-04-03T03:15:59;2.67;;;1.30;;
9056;SDS011;4563;54.756;9.400;2023-04-03T03:18:28;3.67;;;1.23;;
9056;SDS011;4563;54.756;9.400;2023-04-03T03:20:55;1.77;;;1.60;;
9056;SDS011;4563;54.756;9.400;2023-04-03T03:23:24;5.53;;;1.70;;
9056;SDS011;4563;54.756;9.400;2023-04-03T03:25:54;6.43;;;1.50;;
9056;SDS011;4563;54.756;9.400;2023-04-03T03:28:21;1.60;;;1.30;;
9056;SDS011;4563;54.756;9.400;2023-04-03T03:30:48;2.57;;;1.30;;
9056;SDS011;4563;54.756;9.400;2023-04-03T03:33:19;2.17;;;1.37;;
9056;SDS011;4563;54.756;9.400;2023-04-03T03:35:46;5.80;;;3.77;;
9056;SDS011;4563;54.756;9.400;2023-04-03T03:38:13;2.43;;;1.57;;
9056;SDS011;4563;54.756;9.400;2023-04-03T03:40:40;2.27;;;1.53;;
9056;SDS011;4563;54.756;9.400;2023-04-03T03:43:07;3.77;;;1.23;;
9056;SDS011;4563;54.756;9.400;2023-04-03T03:45:33;2.53;;;1.23;;
9056;SDS011;4563;54.756;9.400;2023-04-03T03:48:00;2.23;;;1.27;;
9056;SDS011;4563;54.756;9.400;2023-04-03T03:50:28;3.53;;;1.40;;
9056;SDS011;4563;54.756;9.400;2023-04-03T03:52:55;2.07;;;1.10;;
9056;SDS011;4563;54.756;9.400;2023-04-03T03:55:22;5.67;;;1.20;;
9056;SDS011;4563;54.756;9.400;2023-04-03T03:57:49;5.03;;;1.53;;
9056;SDS011;4563;54.756;9.400;2023-04-03T04:00:16;5.60;;;1.83;;
9056;SDS011;4563;54.756;9.400;2023-04-03T04:02:43;5.10;;;1.70;;
9056;SDS011;4563;54.756;9.400;2023-04-03T04:05:10;2.93;;;1.67;;
9056;SDS011;4563;54.756;9.400;2023-04-03T04:07:39;2.17;;;1.50;;
9056;SDS011;4563;54.756;9.400;2023-04-03T04:10:06;2.23;;;1.60;;
9056;SDS011;4563;54.756;9.400;2023-04-03T04:12:33;21.63;;;1.97;;
9056;SDS011;4563;54.756;9.400;2023-04-03T04:15:00;2.90;;;1.43;;
9056;SDS011;4563;54.756;9.400;2023-04-03T04:17:27;3.27;;;1.60;;
9056;SDS011;4563;54.756;9.400;2023-04-03T04:19:54;3.77;;;1.67;;
9056;SDS011;4563;54.756;9.400;2023-04-03T04:22:21;4.23;;;1.80;;
9056;SDS011;4563;54.756;9.400;2023-04-03T04:24:49;5.83;;;1.57;;
9056;SDS011;4563;54.756;9.400;2023-04-03T04:27:16;4.17;;;2.30;;
9056;SDS011;4563;54.756;9.400;2023-04-03T04:29:42;4.33;;;1.87;;
9056;SDS011;4563;54.756;9.400;2023-04-03T04:32:09;3.60;;;1.50;;
9056;SDS011;4563;54.756;9.400;2023-04-03T04:34:36;3.20;;;1.60;;
9056;SDS011;4563;54.756;9.400;2023-04-03T04:37:03;2.53;;;1.57;;
9056;SDS011;4563;54.756;9.400;2023-04-03T04:39:30;3.40;;;1.57;;
9056;SDS011;4563;54.756;9.400;2023-04-03T04:41:58;2.70;;;1.20;;
9056;SDS011;4563;54.756;9.400;2023-04-03T04:44:25;2.70;;;1.10;;
9056;SDS011;4563;54.756;9.400;2023-04-03T04:46:51;4.57;;;1.87;;
9056;SDS011;4563;54.756;9.400;2023-04-03T04:49:18;4.07;;;2.03;;
9056;SDS011;4563;54.756;9.400;2023-04-03T04:51:45;4.27;;;1.50;;
9056;SDS011;4563;54.756;9.400;2023-04-03T04:54:12;5.40;;;1.70;;
9056;SDS011;4563;54.756;9.400;2023-04-03T04:56:39;3.93;;;1.90;;
9056;SDS011;4563;54.756;9.400;2023-04-03T04:59:09;2.90;;;1.43;;
9056;SDS011;4563;54.756;9.400;2023-04-03T05:01:36;2.33;;;1.10;;
9056;SDS011;4563;54.756;9.400;2023-04-03T05:04:03;3.07;;;1.50;;
9056;SDS011;4563;54.756;9.400;2023-04-03T05:06:30;4.63;;;1.50;;
9056;SDS011;4563;54.756;9.400;2023-04-03T05:08:57;4.77;;;1.60;;
9056;SDS011;4563;54.756;9.400;2023-04-03T05:11:24;4.03;;;1.70;;
9056;SDS011;4563;54.756;9.400;2023-04-03T05:13:50;7.80;;;1.40;;
9056;SDS011;4563;54.756;9.400;2023-04-03T05:16:18;2.47;;;1.40;;
9056;SDS011;4563;54.756;9.400;2023-04-03T05:18:45;1.77;;;1.20;;
9056;SDS011;4563;54.756;9.400;2023-04-03T05:21:12;3.17;;;1.27;;
9056;SDS011;4563;54.756;9.400;2023-04-03T05:23:39;2.83;;;1.77;;
9056;SDS011;4563;54.756;9.400;2023-04-03T05:26:06;8.70;;;1.83;;
9056;SDS011;4563;54.756;9.400;2023-04-03T05:28:34;2.17;;;1.00;;
9056;SDS011;4563;54.756;9.400;2023-04-03T05:31:01;3.67;;;1.53;;
9056;SDS011;4563;54.756;9.400;2023-04-03T05:33:29;6.60;;;1.70;;
9056;SDS011;4563;54.756;9.400;2023-04-03T05:35:56;5.57;;;1.30;;
9056;SDS011;4563;54.756;9.400;2023-04-03T05:38:28;5.03;;;1.77;;
9056;SDS011;4563;54.756;9.400;2023-04-03T05:40:55;6.37;;;1.47;;
9056;SDS011;4563;54.756;9.400;2023-04-03T05:43:22;3.40;;;1.23;;
9056;SDS011;4563;54.756;9.400;2023-04-03T05:45:49;3.90;;;1.90;;
9056;SDS011;4563;54.756;9.400;2023-04-03T05:48:16;3.80;;;1.63;;
9056;SDS011;4563;54.756;9.400;2023-04-03T05:50:45;4.47;;;1.40;;
9056;SDS011;4563;54.756;9.400;2023-04-03T05:53:14;3.30;;;1.33;;
9056;SDS011;4563;54.756;9.400;2023-04-03T05:55:43;5.20;;;1.80;;
9056;SDS011;4563;54.756;9.400;2023-04-03T05:58:10;3.07;;;1.80;;
9056;SDS011;4563;54.756;9.400;2023-04-03T06:00:37;5.40;;;2.63;;
9056;SDS011;4563;54.756;9.400;2023-04-03T06:03:05;4.03;;;2.17;;
9056;SDS011;4563;54.756;9.400;2023-04-03T06:05:32;4.43;;;2.43;;
9056;SDS011;4563;54.756;9.400;2023-04-03T06:08:00;6.40;;;2.27;;
9056;SDS011;4563;54.756;9.400;2023-04-03T06:10:28;5.03;;;2.53;;
9056;SDS011;4563;54.756;9.400;2023-04-03T06:12:55;9.73;;;2.60;;
9056;SDS011;4563;54.756;9.400;2023-04-03T06:15:21;9.50;;;3.43;;
9056;SDS011;4563;54.756;9.400;2023-04-03T06:17:48;4.20;;;2.43;;
9056;SDS011;4563;54.756;9.400;2023-04-03T06:20:16;7.20;;;3.10;;
9056;SDS011;4563;54.756;9.400;2023-04-03T06:22:43;5.93;;;2.90;;
9056;SDS011;4563;54.756;9.400;2023-04-03T06:25:11;4.17;;;2.30;;
9056;SDS011;4563;54.756;9.400;2023-04-03T06:27:38;6.30;;;2.20;;
9056;SDS011;4563;54.756;9.400;2023-04-03T06:30:05;6.27;;;1.70;;
9056;SDS011;4563;54.756;9.400;2023-04-03T06:32:33;5.53;;;1.93;;
9056;SDS011;4563;54.756;9.400;2023-04-03T06:35:00;3.13;;;1.80;;
9056;SDS011;4563;54.756;9.400;2023-04-03T06:37:29;2.87;;;1.90;;
9056;SDS011;4563;54.756;9.400;2023-04-03T06:39:58;7.47;;;2.60;;
9056;SDS011;4563;54.756;9.400;2023-04-03T06:42:27;4.43;;;2.70;;
9056;SDS011;4563;54.756;9.400;2023-04-03T06:44:54;8.70;;;2.60;;
9056;SDS011;4563;54.756;9.400;2023-04-03T06:47:21;3.37;;;2.10;;
9056;SDS011;4563;54.756;9.400;2023-04-03T06:49:48;5.03;;;2.37;;
9056;SDS011;4563;54.756;9.400;2023-04-03T06:52:15;7.73;;;2.53;;
9056;SDS011;4563;54.756;9.400;2023-04-03T06:54:42;5.13;;;2.67;;
9056;SDS011;4563;54.756;9.400;2023-04-03T06:57:09;5.77;;;1.97;;
9056;SDS011;4563;54.756;9.400;2023-04-03T06:59:38;6.47;;;2.53;;
9056;SDS011;4563;54.756;9.400;2023-04-03T07:02:05;7.73;;;2.30;;
9056;SDS011;4563;54.756;9.400;2023-04-03T07:04:32;6.87;;;2.13;;
9056;SDS011;4563;54.756;9.400;2023-04-03T07:06:59;2.93;;;1.97;;
9056;SDS011;4563;54.756;9.400;2023-04-03T07:09:26;3.70;;;2.57;;
9056;SDS011;4563;54.756;9.400;2023-04-03T07:11:53;5.30;;;2.83;;
9056;SDS011;4563;54.756;9.400;2023-04-03T07:14:20;4.40;;;2.20;;
9056;SDS011;4563;54.756;9.400;2023-04-03T07:16:48;4.90;;;2.33;;
9056;SDS011;4563;54.756;9.400;2023-04-03T07:19:15;3.37;;;2.33;;
9056;SDS011;4563;54.756;9.400;2023-04-03T07:21:43;3.57;;;2.00;;
9056;SDS011;4563;54.756;9.400;2023-04-03T07:24:10;6.07;;;2.50;;
9056;SDS011;4563;54.756;9.400;2023-04-03T07:26:39;4.40;;;1.80;;
9056;SDS011;4563;54.756;9.400;2023-04-03T07:29:06;5.87;;;2.10;;
9056;SDS011;4563;54.756;9.400;2023-04-03T07:31:33;4.53;;;1.27;;
9056;SDS011;4563;54.756;9.400;2023-04-03T07:34:01;3.63;;;0.90;;
9056;SDS011;4563;54.756;9.400;2023-04-03T07:36:28;5.80;;;1.10;;
9056;SDS011;4563;54.756;9.400;2023-04-03T07:38:58;2.07;;;1.27;;
9056;SDS011;4563;54.756;9.400;2023-04-03T07:41:25;2.67;;;1.20;;
9056;SDS011;4563;54.756;9.400;2023-04-03T07:43:52;2.47;;;0.90;;
9056;SDS011;4563;54.756;9.400;2023-04-03T07:46:19;4.10;;;1.40;;
9056;SDS011;4563;54.756;9.400;2023-04-03T07:48:46;5.03;;;1.60;;
9056;SDS011;4563;54.756;9.400;2023-04-03T07:51:14;9.17;;;1.27;;
9056;SDS011;4563;54.756;9.400;2023-04-03T07:53:41;2.40;;;1.00;;
9056;SDS011;4563;54.756;9.400;2023-04-03T07:56:08;4.97;;;1.07;;
9056;SDS011;4563;54.756;9.400;2023-04-03T07:58:35;4.27;;;1.07;;
9056;SDS011;4563;54.756;9.400;2023-04-03T08:01:02;2.43;;;1.17;;
9056;SDS011;4563;54.756;9.400;2023-04-03T08:03:29;3.80;;;1.10;;
9056;SDS011;4563;54.756;9.400;2023-04-03T08:06:00;2.77;;;1.00;;
9056;SDS011;4563;54.756;9.400;2023-04-03T08:08:31;1.33;;;0.90;;
9056;SDS011;4563;54.756;9.400;2023-04-03T08:10:58;5.60;;;0.90;;
9056;SDS011;4563;54.756;9.400;2023-04-03T08:13:27;2.67;;;1.60;;
9056;SDS011;4563;54.756;9.400;2023-04-03T08:15:55;1.80;;;1.10;;
9056;SDS011;4563;54.756;9.400;2023-04-03T08:18:22;3.33;;;1.00;;
9056;SDS011;4563;54.756;9.400;2023-04-03T08:20:49;4.73;;;1.47;;
9056;SDS011;4563;54.756;9.400;2023-04-03T08:23:16;2.40;;;0.90;;
9056;SDS011;4563;54.756;9.400;2023-04-03T08:25:45;4.33;;;1.57;;
9056;SDS011;4563;54.756;9.400;2023-04-03T08:28:12;3.17;;;1.00;;
9056;SDS011;4563;54.756;9.400;2023-04-03T08:30:39;2.73;;;1.07;;
9056;SDS011;4563;54.756;9.400;2023-04-03T08:33:07;3.63;;;1.13;;
9056;SDS011;4563;54.756;9.400;2023-04-03T08:35:37;3.93;;;1.50;;
9056;SDS011;4563;54.756;9.400;2023-04-03T08:38:05;4.43;;;1.20;;
9056;SDS011;4563;54.756;9.400;2023-04-03T08:40:32;5.23;;;1.00;;
9056;SDS011;4563;54.756;9.400;2023-04-03T08:43:03;2.53;;;0.87;;
9056;SDS011;4563;54.756;9.400;2023-04-03T08:45:45;2.03;;;1.10;;
9056;SDS011;4563;54.756;9.400;2023-04-03T08:48:15;2.13;;;0.97;;
9056;SDS011;4563;54.756;9.400;2023-04-03T08:50:47;8.77;;;1.30;;
9056;SDS011;4563;54.756;9.400;2023-04-03T08:53:20;5.00;;;1.10;;
9056;SDS011;4563;54.756;9.400;2023-04-03T08:55:50;2.77;;;1.10;;
9056;SDS011;4563;54.756;9.400;2023-04-03T08:58:21;5.43;;;1.30;;
9056;SDS011;4563;54.756;9.400;2023-04-03T09:00:51;0.83;;;0.80;;
9056;SDS011;4563;54.756;9.400;2023-04-03T09:03:23;4.73;;;0.93;;
9056;SDS011;4563;54.756;9.400;2023-04-03T09:05:51;2.53;;;0.80;;
9056;SDS011;4563;54.756;9.400;2023-04-03T09:08:22;1.27;;;0.60;;
9056;SDS011;4563;54.756;9.400;2023-04-03T09:10:55;1.67;;;0.80;;
9056;SDS011;4563;54.756;9.400;2023-04-03T09:13:34;6.60;;;0.70;;
9056;SDS011;4563;54.756;9.400;2023-04-03T09:16:12;2.43;;;0.83;;
9056;SDS011;4563;54.756;9.400;2023-04-03T09:18:48;3.50;;;0.70;;
9056;SDS011;4563;54.756;9.400;2023-04-03T09:21:23;4.70;;;0.80;;
9056;SDS011;4563;54.756;9.400;2023-04-03T09:23:58;1.33;;;0.70;;
9056;SDS011;4563;54.756;9.400;2023-04-03T09:26:29;4.27;;;0.70;;
9056;SDS011;4563;54.756;9.400;2023-04-03T09:29:05;3.30;;;0.70;;
9056;SDS011;4563;54.756;9.400;2023-04-03T09:31:36;1.10;;;1.00;;
9056;SDS011;4563;54.756;9.400;2023-04-03T09:34:05;2.47;;;0.80;;
9056;SDS011;4563;54.756;9.400;2023-04-03T09:36:43;7.00;;;1.10;;
9056;SDS011;4563;54.756;9.400;2023-04-03T09:39:12;3.07;;;0.93;;
9056;SDS011;4563;54.756;9.400;2023-04-03T09:41:55;0.97;;;0.63;;
9056;SDS011;4563;54.756;9.400;2023-04-03T09:44:26;6.73;;;1.20;;
9056;SDS011;4563;54.756;9.400;2023-04-03T09:46:55;5.33;;;0.90;;
9056;SDS011;4563;54.756;9.400;2023-04-03T09:49:22;2.03;;;0.90;;
9056;SDS011;4563;54.756;9.400;2023-04-03T09:51:49;2.40;;;0.80;;
9056;SDS011;4563;54.756;9.400;2023-04-03T09:54:32;2.10;;;0.90;;
9056;SDS011;4563;54.756;9.400;2023-04-03T09:57:04;4.10;;;1.20;;
9056;SDS011;4563;54.756;9.400;2023-04-03T09:59:36;3.37;;;1.00;;
9056;SDS011;4563;54.756;9.400;2023-04-03T10:02:18;1.80;;;0.73;;
9056;SDS011;4563;54.756;9.400;2023-04-03T10:05:01;2.30;;;1.00;;
9056;SDS011;4563;54.756;9.400;2023-04-03T10:07:30;3.70;;;1.20;;
9056;SDS011;4563;54.756;9.400;2023-04-03T10:10:02;3.53;;;1.13;;
9056;SDS011;4563;54.756;9.400;2023-04-03T10:12:42;6.37;;;1.07;;
9056;SDS011;4563;54.756;9.400;2023-04-03T10:15:12;2.93;;;0.63;;
9056;SDS011;4563;54.756;9.400;2023-04-03T10:17:45;1.47;;;0.57;;
9056;SDS011;4563;54.756;9.400;2023-04-03T10:20:24;2.50;;;0.63;;
9056;SDS011;4563;54.756;9.400;2023-04-03T10:23:00;2.73;;;0.53;;
9056;SDS011;4563;54.756;9.400;2023-04-03T10:25:39;1.63;;;0.70;;
9056;SDS011;4563;54.756;9.400;2023-04-03T10:28:10;2.00;;;0.70;;
9056;SDS011;4563;54.756;9.400;2023-04-03T10:30:47;0.80;;;0.63;;
9056;SDS011;4563;54.756;9.400;2023-04-03T10:33:20;3.53;;;0.90;;
9056;SDS011;4563;54.756;9.400;2023-04-03T10:36:01;2.43;;;0.83;;
9056;SDS011;4563;54.756;9.400;2023-04-03T10:38:37;1.63;;;0.80;;
9056;SDS011;4563;54.756;9.400;2023-04-03T10:41:10;0.83;;;0.60;;
9056;SDS011;4563;54.756;9.400;2023-04-03T10:43:43;2.70;;;0.67;;
9056;SDS011;4563;54.756;9.400;2023-04-03T10:46:18;2.20;;;0.77;;
9056;SDS011;4563;54.756;9.400;2023-04-03T10:48:53;2.27;;;0.53;;
9056;SDS011;4563;54.756;9.400;2023-04-03T10:51:36;1.03;;;0.80;;
9056;SDS011;4563;54.756;9.400;2023-04-03T10:54:08;1.80;;;1.03;;
9056;SDS011;4563;54.756;9.400;2023-04-03T10:56:39;2.93;;;0.70;;
9056;SDS011;4563;54.756;9.400;2023-04-03T10:59:13;0.80;;;0.70;;
9056;SDS011;4563;54.756;9.400;2023-04-03T11:01:46;1.47;;;0.73;;
9056;SDS011;4563;54.756;9.400;2023-04-03T11:04:17;1.37;;;0.70;;
9056;SDS011;4563;54.756;9.400;2023-04-03T11:06:47;3.47;;;0.77;;
9056;SDS011;4563;54.756;9.400;2023-04-03T11:09:19;1.77;;;0.70;;
9056;SDS011;4563;54.756;9.400;2023-04-03T11:11:51;2.63;;;0.83;;
9056;SDS011;4563;54.756;9.400;2023-04-03T11:14:23;3.20;;;1.07;;
9056;SDS011;4563;54.756;9.400;2023-04-03T11:16:57;1.00;;;0.70;;
9056;SDS011;4563;54.756;9.400;2023-04-03T11:19:33;4.60;;;0.67;;
9056;SDS011;4563;54.756;9.400;2023-04-03T11:22:04;1.43;;;0.73;;
9056;SDS011;4563;54.756;9.400;2023-04-03T11:24:37;2.20;;;0.53;;
9056;SDS011;4563;54.756;9.400;2023-04-03T11:27:08;3.47;;;0.70;;
9056;SDS011;4563;54.756;9.400;2023-04-03T11:29:41;1.73;;;0.50;;
9056;SDS011;4563;54.756;9.400;2023-04-03T11:32:23;2.07;;;0.60;;
9056;SDS011;4563;54.756;9.400;2023-04-03T11:35:00;2.67;;;0.70;;
9056;SDS011;4563;54.756;9.400;2023-04-03T11:37:31;3.20;;;0.70;;
9056;SDS011;4563;54.756;9.400;2023-04-03T11:40:03;2.17;;;0.67;;
9056;SDS011;4563;54.756;9.400;2023-04-03T11:42:34;1.27;;;0.50;;
9056;SDS011;4563;54.756;9.400;2023-04-03T11:45:17;2.13;;;0.50;;
9056;SDS011;4563;54.756;9.400;2023-04-03T11:48:41;2.17;;;0.70;;
9056;SDS011;4563;54.756;9.400;2023-04-03T12:03:30;2.10;;;0.40;;
9056;SDS011;4563;54.756;9.400;2023-04-03T12:09:01;1.60;;;0.53;;
9056;SDS011;4563;54.756;9.400;2023-04-03T12:11:49;1.83;;;0.50;;
9056;SDS011;4563;54.756;9.400;2023-04-03T12:14:21;4.03;;;0.60;;
9056;SDS011;4563;54.756;9.400;2023-04-03T12:16:50;1.37;;;0.37;;
9056;SDS011;4563;54.756;9.400;2023-04-03T12:19:32;2.27;;;0.70;;
9056;SDS011;4563;54.756;9.400;2023-04-03T12:22:08;1.70;;;0.50;;
9056;SDS011;4563;54.756;9.400;2023-04-03T12:24:37;1.00;;;0.47;;
9056;SDS011;4563;54.756;9.400;2023-04-03T12:27:26;1.43;;;0.60;;
9056;SDS011;4563;54.756;9.400;2023-04-03T12:29:59;1.00;;;0.33;;
9056;SDS011;4563;54.756;9.400;2023-04-03T12:32:43;1.80;;;0.40;;
9056;SDS011;4563;54.756;9.400;2023-04-03T12:35:24;1.87;;;0.40;;
9056;SDS011;4563;54.756;9.400;2023-04-03T12:38:02;2.50;;;0.63;;
9056;SDS011;4563;54.756;9.400;2023-04-03T12:40:59;3.60;;;0.53;;
9056;SDS011;4563;54.756;9.400;2023-04-03T12:43:45;0.97;;;0.30;;
9056;SDS011;4563;54.756;9.400;2023-04-03T12:46:22;2.50;;;0.40;;
9056;SDS011;4563;54.756;9.400;2023-04-03T12:48:51;1.93;;;0.30;;
9056;SDS011;4563;54.756;9.400;2023-04-03T12:51:21;1.80;;;0.37;;
9056;SDS011;4563;54.756;9.400;2023-04-03T12:53:52;0.90;;;0.33;;
9056;SDS011;4563;54.756;9.400;2023-04-03T12:56:25;2.07;;;0.63;;
9056;SDS011;4563;54.756;9.400;2023-04-03T12:58:56;0.67;;;0.30;;
9056;SDS011;4563;54.756;9.400;2023-04-03T13:01:39;3.60;;;0.40;;
9056;SDS011;4563;54.756;9.400;2023-04-03T13:04:06;1.70;;;0.50;;
9056;SDS011;4563;54.756;9.400;2023-04-03T13:06:37;2.03;;;0.30;;
9056;SDS011;4563;54.756;9.400;2023-04-03T13:09:06;1.80;;;0.37;;
9056;SDS011;4563;54.756;9.400;2023-04-03T13:11:46;0.73;;;0.37;;
9056;SDS011;4563;54.756;9.400;2023-04-03T13:14:16;0.37;;;0.30;;
9056;SDS011;4563;54.756;9.400;2023-04-03T13:16:52;1.50;;;0.50;;
9056;SDS011;4563;54.756;9.400;2023-04-03T13:19:21;1.47;;;0.50;;
9056;SDS011;4563;54.756;9.400;2023-04-03T13:21:49;0.33;;;0.30;;
9056;SDS011;4563;54.756;9.400;2023-04-03T13:24:22;0.60;;;0.50;;
9056;SDS011;4563;54.756;9.400;2023-04-03T13:26:49;1.23;;;0.50;;
9056;SDS011;4563;54.756;9.400;2023-04-03T13:29:21;1.90;;;0.50;;
9056;SDS011;4563;54.756;9.400;2023-04-03T13:31:52;1.67;;;0.40;;
9056;SDS011;4563;54.756;9.400;2023-04-03T13:34:21;2.20;;;0.60;;
9056;SDS011;4563;54.756;9.400;2023-04-03T13:37:00;1.90;;;0.60;;
9056;SDS011;4563;54.756;9.400;2023-04-03T13:39:30;7.17;;;0.43;;
9056;SDS011;4563;54.756;9.400;2023-04-03T13:41:59;2.67;;;0.40;;
9056;SDS011;4563;54.756;9.400;2023-04-03T13:44:33;0.70;;;0.50;;
9056;SDS011;4563;54.756;9.400;2023-04-03T13:47:14;0.60;;;0.30;;
9056;SDS011;4563;54.756;9.400;2023-04-03T13:49:44;1.37;;;0.73;;
9056;SDS011;4563;54.756;9.400;2023-04-03T13:52:21;2.50;;;0.50;;
9056;SDS011;4563;54.756;9.400;2023-04-03T13:54:53;1.07;;;0.60;;
9056;SDS011;4563;54.756;9.400;2023-04-03T13:57:22;2.20;;;0.50;;
9056;SDS011;4563;54.756;9.400;2023-04-03T13:59:50;5.43;;;0.60;;
9056;SDS011;4563;54.756;9.400;2023-04-03T14:02:18;1.80;;;0.73;;
9056;SDS011;4563;54.756;9.400;2023-04-03T14:04:50;0.77;;;0.60;;
9056;SDS011;4563;54.756;9.400;2023-04-03T14:07:21;4.03;;;0.57;;
9056;SDS011;4563;54.756;9.400;2023-04-03T14:09:48;1.23;;;0.40;;
9056;SDS011;4563;54.756;9.400;2023-04-03T14:12:16;1.93;;;0.60;;
9056;SDS011;4563;54.756;9.400;2023-04-03T14:14:45;0.87;;;0.50;;
9056;SDS011;4563;54.756;9.400;2023-04-03T14:17:15;0.93;;;0.50;;
9056;SDS011;4563;54.756;9.400;2023-04-03T14:19:44;1.83;;;0.70;;
9056;SDS011;4563;54.756;9.400;2023-04-03T14:22:13;1.90;;;0.50;;
9056;SDS011;4563;54.756;9.400;2023-04-03T14:24:42;1.47;;;0.60;;
9056;SDS011;4563;54.756;9.400;2023-04-03T14:27:11;2.47;;;0.50;;
9056;SDS011;4563;54.756;9.400;2023-04-03T14:29:43;1.47;;;0.57;;
9056;SDS011;4563;54.756;9.400;2023-04-03T14:32:11;2.30;;;0.60;;
9056;SDS011;4563;54.756;9.400;2023-04-03T14:34:40;0.97;;;0.40;;
9056;SDS011;4563;54.756;9.400;2023-04-03T14:37:09;1.47;;;0.60;;
9056;SDS011;4563;54.756;9.400;2023-04-03T14:39:37;2.50;;;0.60;;
9056;SDS011;4563;54.756;9.400;2023-04-03T14:42:05;1.43;;;0.50;;
9056;SDS011;4563;54.756;9.400;2023-04-03T14:44:36;1.13;;;0.30;;
9056;SDS011;4563;54.756;9.400;2023-04-03T14:47:03;1.23;;;0.60;;
9056;SDS011;4563;54.756;9.400;2023-04-03T14:49:31;1.20;;;0.40;;
9056;SDS011;4563;54.756;9.400;2023-04-03T14:51:58;1.23;;;0.40;;
9056;SDS011;4563;54.756;9.400;2023-04-03T14:54:25;2.33;;;0.60;;
9056;SDS011;4563;54.756;9.400;2023-04-03T14:56:54;3.93;;;0.93;;
9056;SDS011;4563;54.756;9.400;2023-04-03T14:59:22;3.23;;;0.60;;
9056;SDS011;4563;54.756;9.400;2023-04-03T15:01:50;2.77;;;0.60;;
9056;SDS011;4563;54.756;9.400;2023-04-03T15:04:18;1.70;;;0.47;;
9056;SDS011;4563;54.756;9.400;2023-04-03T15:06:47;0.93;;;0.57;;
9056;SDS011;4563;54.756;9.400;2023-04-03T15:09:18;1.27;;;0.43;;
9056;SDS011;4563;54.756;9.400;2023-04-03T15:11:46;1.67;;;0.60;;
9056;SDS011;4563;54.756;9.400;2023-04-03T15:14:14;1.80;;;0.53;;
9056;SDS011;4563;54.756;9.400;2023-04-03T15:16:41;2.97;;;0.77;;
9056;SDS011;4563;54.756;9.400;2023-04-03T15:19:08;1.27;;;0.50;;
9056;SDS011;4563;54.756;9.400;2023-04-03T15:21:35;2.00;;;0.40;;
9056;SDS011;4563;54.756;9.400;2023-04-03T15:24:03;1.27;;;0.50;;
9056;SDS011;4563;54.756;9.400;2023-04-03T15:26:30;1.43;;;0.50;;
9056;SDS011;4563;54.756;9.400;2023-04-03T15:28:58;0.83;;;0.50;;
9056;SDS011;4563;54.756;9.400;2023-04-03T15:31:25;2.07;;;0.40;;
9056;SDS011;4563;54.756;9.400;2023-04-03T15:33:52;1.20;;;0.63;;
9056;SDS011;4563;54.756;9.400;2023-04-03T15:36:19;3.43;;;0.60;;
9056;SDS011;4563;54.756;9.400;2023-04-03T15:38:45;1.37;;;0.50;;
9056;SDS011;4563;54.756;9.400;2023-04-03T15:41:14;0.47;;;0.40;;
9056;SDS011;4563;54.756;9.400;2023-04-03T15:43:40;0.60;;;0.50;;
9056;SDS011;4563;54.756;9.400;2023-04-03T15:46:07;3.53;;;0.70;;
9056;SDS011;4563;54.756;9.400;2023-04-03T15:48:37;3.20;;;0.60;;